createdAt,value
2022-08-08T00:00:56.315Z,70.40
2022-08-08T00:03:31.499Z,70.50
2022-08-08T00:06:34.265Z,70.70
2022-08-08T00:09:07.675Z,71.20
2022-08-08T00:12:02.857Z,71.30
2022-08-08T00:14:56.978Z,70.90
2022-08-08T00:18:01.699Z,71.00
2022-08-08T00:20:55.298Z,70.80
2022-08-08T00:27:09.738Z,71.10
2022-08-08T00:29:56.456Z,70.70
2022-08-08T00:32:35.298Z,71.30
2022-08-08T00:35:25.329Z,71.20
2022-08-08T00:38:32.291Z,71.30
2022-08-08T00:41:54.857Z,71.20
2022-08-08T00:44:56.948Z,71.00
2022-08-08T00:47:36.870Z,71.00
2022-08-08T00:50:40.931Z,71.10
2022-08-08T00:53:29.566Z,71.20
2022-08-08T00:56:12.934Z,71.20
2022-08-08T00:58:59.095Z,71.10
2022-08-08T01:01:41.979Z,71.10
2022-08-08T01:04:34.267Z,71.50
2022-08-08T01:07:34.855Z,70.90
2022-08-08T01:10:52.523Z,71.10
2022-08-08T01:13:44.496Z,71.20
2022-08-08T01:16:34.735Z,71.20
2022-08-08T01:19:42.354Z,71.00
2022-08-08T01:22:36.938Z,70.80
2022-08-08T01:25:08.326Z,71.10
2022-08-08T01:28:02.076Z,70.90
2022-08-08T01:31:10.395Z,71.10
2022-08-08T01:34:28.803Z,71.10
2022-08-08T01:37:02.094Z,71.30
2022-08-08T01:39:53.764Z,71.20
2022-08-08T01:42:36.108Z,70.90
2022-08-08T01:45:32.859Z,71.50
2022-08-08T01:48:43.768Z,71.30
2022-08-08T01:52:51.796Z,71.20
2022-08-08T01:55:26.174Z,71.30
2022-08-08T01:58:10.913Z,71.20
2022-08-08T02:00:36.164Z,71.40
2022-08-08T02:03:57.066Z,71.30
2022-08-08T02:06:45.648Z,71.10
2022-08-08T02:10:01.327Z,71.30
2022-08-08T02:12:50.316Z,71.50
2022-08-08T02:15:34.882Z,71.60
2022-08-08T02:18:17.596Z,72.40
2022-08-08T02:21:20.889Z,71.80
2022-08-08T02:24:16.799Z,72.00
2022-08-08T02:26:50.337Z,72.00
2022-08-08T02:29:52.056Z,71.60
2022-08-08T02:32:40.518Z,71.50
2022-08-08T02:36:02.665Z,71.70
2022-08-08T02:38:55.098Z,71.70
2022-08-08T02:42:03.997Z,71.90
2022-08-08T02:45:01.278Z,71.80
2022-08-08T02:47:47.053Z,72.60
2022-08-08T02:51:30.597Z,72.10
2022-08-08T02:54:19.673Z,71.60
2022-08-08T02:56:56.452Z,72.00
2022-08-08T03:00:26.569Z,71.80
2022-08-08T03:05:00.942Z,71.80
2022-08-08T03:06:41.076Z,72.20
2022-08-08T03:09:58.791Z,72.30
2022-08-08T03:13:07.549Z,72.50
2022-08-08T03:15:57.088Z,72.60
2022-08-08T03:18:57.856Z,72.40
2022-08-08T03:21:27.007Z,72.60
2022-08-08T03:24:07.618Z,72.60
2022-08-08T03:26:42.605Z,72.70
2022-08-08T03:29:18.690Z,72.60
2022-08-08T03:32:12.208Z,72.90
2022-08-08T03:34:41.138Z,72.80
2022-08-08T03:37:59.052Z,72.60
2022-08-08T03:40:02.307Z,72.50
2022-08-08T03:42:31.420Z,72.80
2022-08-08T03:44:58.903Z,72.80
2022-08-08T03:47:39.522Z,72.50
2022-08-08T03:50:19.822Z,72.50
2022-08-08T03:52:47.520Z,72.80
2022-08-08T03:55:55.349Z,72.80
2022-08-08T03:58:30.415Z,72.60
2022-08-08T04:01:20.775Z,72.90
2022-08-08T04:03:58.724Z,72.90
2022-08-08T04:06:29.659Z,72.90
2022-08-08T04:08:57.363Z,73.00
2022-08-08T04:11:25.525Z,73.30
2022-08-08T04:14:33.428Z,73.00
2022-08-08T04:16:40.991Z,73.20
2022-08-08T04:19:24.038Z,73.20
2022-08-08T04:21:51.953Z,73.00
2022-08-08T04:24:19.511Z,73.50
2022-08-08T04:26:58.703Z,73.30
2022-08-08T04:29:26.322Z,73.10
2022-08-08T04:31:58.572Z,73.50
2022-08-08T04:34:29.058Z,73.50
2022-08-08T04:36:59.314Z,73.40
2022-08-08T04:40:04.156Z,73.70
2022-08-08T04:42:15.881Z,73.40
2022-08-08T04:44:47.702Z,73.60
2022-08-08T04:47:14.934Z,73.50
2022-08-08T04:50:01.028Z,73.60
2022-08-08T04:52:30.039Z,73.50
2022-08-08T04:55:01.738Z,73.40
2022-08-08T04:57:28.829Z,73.50
2022-08-08T04:59:59.522Z,74.30
2022-08-08T05:02:31.461Z,73.60
2022-08-08T05:04:59.808Z,73.50
2022-08-08T05:07:37.901Z,73.80
2022-08-08T05:10:12.805Z,73.90
2022-08-08T05:12:53.446Z,73.70
2022-08-08T05:15:31.409Z,73.50
2022-08-08T05:18:14.027Z,74.10
2022-08-08T05:20:49.911Z,73.40
2022-08-08T05:23:17.445Z,73.50
2022-08-08T05:25:44.203Z,74.10
2022-08-08T05:28:14.829Z,73.80
2022-08-08T05:30:47.168Z,73.70
2022-08-08T05:33:14.670Z,73.40
2022-08-08T05:35:45.410Z,73.90
2022-08-08T05:38:31.890Z,73.30
2022-08-08T05:41:01.753Z,73.40
2022-08-08T05:43:39.209Z,74.50
2022-08-08T05:46:19.062Z,73.70
2022-08-08T05:48:52.408Z,73.70
2022-08-08T05:51:22.170Z,73.30
2022-08-08T05:54:25.037Z,73.80
2022-08-08T05:56:42.449Z,73.20
2022-08-08T05:59:53.611Z,72.90
2022-08-08T06:02:43.327Z,72.80
2022-08-08T06:05:34.170Z,73.30
2022-08-08T06:08:02.582Z,73.30
2022-08-08T06:10:39.318Z,73.90
2022-08-08T06:13:12.499Z,73.10
2022-08-08T06:15:51.167Z,71.90
2022-08-08T06:18:23.799Z,72.60
2022-08-08T06:20:58.012Z,71.90
2022-08-08T06:29:48.766Z,72.00
2022-08-08T06:32:15.024Z,72.10
2022-08-08T06:37:44.462Z,72.50
2022-08-08T06:40:16.184Z,72.40
2022-08-08T06:45:48.442Z,72.10
2022-08-08T06:48:16.201Z,72.40
2022-08-08T06:50:46.832Z,71.00
2022-08-08T06:53:20.502Z,71.50
2022-08-08T06:56:00.477Z,72.10
2022-08-08T06:58:30.381Z,71.80
2022-08-08T07:01:00.822Z,71.20
2022-08-08T07:03:52.728Z,70.40
2022-08-08T07:06:33.338Z,71.40
2022-08-08T07:09:15.084Z,70.80
2022-08-08T07:11:51.543Z,70.60
2022-08-08T07:14:27.347Z,70.20
2022-08-08T07:17:01.531Z,70.00
2022-08-08T07:19:44.540Z,70.60
2022-08-08T07:22:18.640Z,70.20
2022-08-08T07:24:58.464Z,70.80
2022-08-08T07:27:46.944Z,70.20
2022-08-08T07:30:19.611Z,69.80
2022-08-08T07:32:52.799Z,69.60
2022-08-08T07:35:20.020Z,70.00
2022-08-08T07:38:04.438Z,68.30
2022-08-08T07:40:36.169Z,69.00
2022-08-08T07:43:09.529Z,69.00
2022-08-08T07:46:04.764Z,69.50
2022-08-08T07:48:24.790Z,70.20
2022-08-08T07:50:58.928Z,69.80
2022-08-08T07:54:12.519Z,69.90
2022-08-08T07:57:17.327Z,70.00
2022-08-08T07:59:58.559Z,69.20
2022-08-08T08:02:38.694Z,71.10
2022-08-08T08:05:14.999Z,72.00
2022-08-08T08:07:45.692Z,71.70
2022-08-08T08:10:15.745Z,71.40
2022-08-08T08:13:20.388Z,70.50
2022-08-08T08:16:05.784Z,71.10
2022-08-08T08:18:52.217Z,70.50
2022-08-08T08:21:44.167Z,71.70
2022-08-08T08:24:12.608Z,70.70
2022-08-08T08:26:39.501Z,69.90
2022-08-08T08:29:16.719Z,70.90
2022-08-08T08:31:57.575Z,71.00
2022-08-08T08:34:31.794Z,70.70
2022-08-08T08:36:59.881Z,69.70
2022-08-08T08:39:59.763Z,70.00
2022-08-08T08:42:14.857Z,70.50
2022-08-08T08:44:55.790Z,70.40
2022-08-08T08:47:23.307Z,70.30
2022-08-08T08:49:50.036Z,70.20
2022-08-08T08:52:17.852Z,68.80
2022-08-08T08:54:48.715Z,69.60
2022-08-08T08:57:23.387Z,69.10
2022-08-08T09:00:01.789Z,69.50
2022-08-08T09:02:35.467Z,69.80
2022-08-08T09:05:07.846Z,67.60
2022-08-08T09:07:52.291Z,67.50
2022-08-08T09:10:32.152Z,67.50
2022-08-08T09:13:01.884Z,67.80
2022-08-08T09:15:41.409Z,67.60
2022-08-08T09:18:09.782Z,66.50
2022-08-08T09:22:05.289Z,66.20
2022-08-08T09:23:37.939Z,65.50
2022-08-08T09:26:21.602Z,65.90
2022-08-08T09:28:50.433Z,66.50
2022-08-08T09:31:42.825Z,65.20
2022-08-08T09:34:32.265Z,63.90
2022-08-08T09:37:46.315Z,64.50
2022-08-08T09:40:10.973Z,63.90
2022-08-08T09:42:51.419Z,63.60
2022-08-08T09:46:01.247Z,63.50
2022-08-08T09:48:22.894Z,62.60
2022-08-08T09:50:56.620Z,62.40
2022-08-08T09:53:53.176Z,63.10
2022-08-08T09:56:25.126Z,62.30
2022-08-08T09:59:11.180Z,62.00
2022-08-08T10:02:02.149Z,62.40
2022-08-08T10:04:41.534Z,62.20
2022-08-08T10:07:15.790Z,62.30
2022-08-08T10:10:00.346Z,61.00
2022-08-08T10:12:53.811Z,60.70
2022-08-08T10:15:26.456Z,60.90
2022-08-08T10:18:05.557Z,60.70
2022-08-08T10:20:58.048Z,60.70
2022-08-08T10:23:42.134Z,60.50
2022-08-08T10:26:26.100Z,60.70
2022-08-08T10:29:06.801Z,59.60
2022-08-08T10:31:55.220Z,59.50
2022-08-08T10:34:23.420Z,59.70
2022-08-08T10:36:51.598Z,58.60
2022-08-08T10:39:23.329Z,59.20
2022-08-08T10:42:15.472Z,58.80
2022-08-08T10:44:43.776Z,58.80
2022-08-08T10:47:14.056Z,58.10
2022-08-08T10:50:01.949Z,58.30
2022-08-08T10:52:31.483Z,59.00
2022-08-08T10:55:09.192Z,59.10
2022-08-08T10:57:54.203Z,59.00
2022-08-08T11:00:26.475Z,58.20
2022-08-08T11:02:54.561Z,58.10
2022-08-08T11:05:23.198Z,58.80
2022-08-08T11:08:37.121Z,58.30
2022-08-08T11:10:39.339Z,57.50
2022-08-08T11:13:28.042Z,57.10
2022-08-08T11:16:01.461Z,58.00
2022-08-08T11:18:36.358Z,57.10
2022-08-08T11:21:09.322Z,57.80
2022-08-08T11:23:42.448Z,59.30
2022-08-08T11:26:18.822Z,59.20
2022-08-08T11:28:46.750Z,58.80
2022-08-08T11:31:16.448Z,58.80
2022-08-08T11:34:03.290Z,57.20
2022-08-08T11:36:32.264Z,57.70
2022-08-08T11:39:04.568Z,57.20
2022-08-08T11:41:32.614Z,56.80
2022-08-08T11:44:01.584Z,57.00
2022-08-08T11:46:30.584Z,56.70
2022-08-08T11:49:00.038Z,56.50
2022-08-08T11:51:30.418Z,55.90
2022-08-08T11:54:26.937Z,55.80
2022-08-08T11:56:57.747Z,56.20
2022-08-08T12:00:00.497Z,55.70
2022-08-08T12:02:33.004Z,55.90
2022-08-08T12:05:06.723Z,57.10
2022-08-08T12:07:52.552Z,56.60
2022-08-08T12:10:22.179Z,57.40
2022-08-08T12:12:51.757Z,57.20
2022-08-08T12:15:42.810Z,57.10
2022-08-08T12:18:21.312Z,56.40
2022-08-08T12:20:50.610Z,56.50
2022-08-08T12:23:43.731Z,56.20
2022-08-08T12:26:28.538Z,55.50
2022-08-08T12:29:03.132Z,55.60
2022-08-08T12:31:38.849Z,54.70
2022-08-08T12:34:13.295Z,54.80
2022-08-08T12:36:46.430Z,55.00
2022-08-08T12:40:01.478Z,54.00
2022-08-08T12:42:21.040Z,53.60
2022-08-08T12:44:50.305Z,55.20
2022-08-08T12:47:58.033Z,55.00
2022-08-08T12:50:15.045Z,55.80
2022-08-08T12:52:52.447Z,54.70
2022-08-08T12:55:35.564Z,55.10
2022-08-08T12:58:15.685Z,55.50
2022-08-08T13:00:46.190Z,55.10
2022-08-08T13:03:33.392Z,55.20
2022-08-08T13:06:09.345Z,54.60
2022-08-08T13:08:53.798Z,54.80
2022-08-08T13:12:27.247Z,55.20
2022-08-08T13:14:21.023Z,55.90
2022-08-08T13:16:49.546Z,55.00
2022-08-08T13:19:20.359Z,55.70
2022-08-08T13:21:53.501Z,56.90
2022-08-08T13:24:42.051Z,56.20
2022-08-08T13:27:15.776Z,56.00
2022-08-08T13:29:48.407Z,56.50
2022-08-08T13:32:17.285Z,56.90
2022-08-08T13:34:52.781Z,57.50
2022-08-08T13:37:28.026Z,57.30
2022-08-08T13:40:07.830Z,58.00
2022-08-08T13:42:34.677Z,57.50
2022-08-08T13:45:02.235Z,58.40
2022-08-08T13:47:31.392Z,58.40
2022-08-08T13:50:37.486Z,58.30
2022-08-08T13:52:55.031Z,58.20
2022-08-08T13:55:29.673Z,58.40
2022-08-08T13:58:07.912Z,58.40
2022-08-08T14:00:45.000Z,58.10
2022-08-08T14:03:53.139Z,57.80
2022-08-08T14:06:32.083Z,57.70
2022-08-08T14:08:57.407Z,57.70
2022-08-08T14:11:29.668Z,57.70
2022-08-08T14:14:00.164Z,58.50
2022-08-08T14:16:28.658Z,57.60
2022-08-08T14:18:57.459Z,57.70
2022-08-08T14:21:48.913Z,58.20
2022-08-08T14:24:34.574Z,57.80
2022-08-08T14:27:01.976Z,58.10
2022-08-08T14:29:39.433Z,58.30
2022-08-08T14:32:12.507Z,58.70
2022-08-08T14:34:43.465Z,59.50
2022-08-08T14:37:12.976Z,57.80
2022-08-08T14:39:53.748Z,58.60
2022-08-08T14:42:29.982Z,58.10
2022-08-08T14:45:00.948Z,58.20
2022-08-08T14:47:30.334Z,58.50
2022-08-08T14:50:14.074Z,59.10
2022-08-08T14:52:53.295Z,59.00
2022-08-08T14:55:22.682Z,58.70
2022-08-08T14:58:12.117Z,58.70
2022-08-08T15:00:47.935Z,58.40
2022-08-08T15:03:17.004Z,58.60
2022-08-08T15:05:53.588Z,58.80
2022-08-08T15:08:34.634Z,58.10
2022-08-08T15:11:04.421Z,58.80
2022-08-08T15:13:35.271Z,58.10
2022-08-08T15:16:08.557Z,58.60
2022-08-08T15:18:40.064Z,58.40
2022-08-08T15:21:10.853Z,58.90
2022-08-08T15:23:39.107Z,58.30
2022-08-08T15:26:09.604Z,59.00
2022-08-08T15:28:39.394Z,59.00
2022-08-08T15:31:06.169Z,58.60
2022-08-08T15:33:38.544Z,58.90
2022-08-08T15:36:19.398Z,58.70
2022-08-08T15:38:55.196Z,58.50
2022-08-08T15:41:24.712Z,57.90
2022-08-08T15:44:00.842Z,58.70
2022-08-08T15:46:34.885Z,58.50
2022-08-08T15:49:04.078Z,58.70
2022-08-08T15:51:33.425Z,58.30
2022-08-08T15:54:00.394Z,58.50
2022-08-08T15:56:27.113Z,58.50
2022-08-08T15:58:53.747Z,58.20
2022-08-08T16:01:22.435Z,58.40
2022-08-08T16:03:51.967Z,58.00
2022-08-08T16:06:28.589Z,58.70
2022-08-08T16:13:02.414Z,58.60
2022-08-08T16:13:08.885Z,58.90
2022-08-08T16:14:33.843Z,59.50
2022-08-08T16:17:01.874Z,59.20
2022-08-08T16:19:30.029Z,59.50
2022-08-08T16:21:57.705Z,58.60
2022-08-08T16:24:24.542Z,58.80
2022-08-08T16:26:51.500Z,59.20
2022-08-08T16:29:23.593Z,59.50
2022-08-08T16:32:04.338Z,59.50
2022-08-08T16:34:38.257Z,59.20
2022-08-08T16:37:06.156Z,59.70
2022-08-08T16:40:01.852Z,59.50
2022-08-08T16:42:20.057Z,59.60
2022-08-08T16:44:54.665Z,60.00
2022-08-08T16:47:40.108Z,60.00
2022-08-08T16:50:15.750Z,60.00
2022-08-08T16:55:24.256Z,60.30
2022-08-08T16:55:53.405Z,60.40
2022-08-08T16:58:20.404Z,61.00
2022-08-08T17:00:48.731Z,60.70
2022-08-08T17:03:24.535Z,61.10
2022-08-08T17:06:02.509Z,60.70
2022-08-08T17:08:29.756Z,61.00
2022-08-08T17:10:58.994Z,61.60
2022-08-08T17:16:30.012Z,61.40
2022-08-08T17:18:58.391Z,60.90
2022-08-08T17:24:32.624Z,61.10
2022-08-08T17:27:02.234Z,60.60
2022-08-08T17:29:33.418Z,61.70
2022-08-08T17:32:05.953Z,61.30
2022-08-08T17:34:54.120Z,61.40
2022-08-08T17:37:23.661Z,61.70
2022-08-08T17:40:10.594Z,61.90
2022-08-08T17:45:32.894Z,62.10
2022-08-08T17:48:03.704Z,62.30
2022-08-08T17:50:30.756Z,62.00
2022-08-08T17:52:57.861Z,62.40
2022-08-08T17:56:06.836Z,61.80
2022-08-08T17:58:12.579Z,62.50
2022-08-08T18:00:47.410Z,62.40
2022-08-08T18:03:22.908Z,62.60
2022-08-08T18:08:43.540Z,63.20
2022-08-08T18:11:16.282Z,63.40
2022-08-08T18:13:50.360Z,63.20
2022-08-08T18:16:23.177Z,63.40
2022-08-08T18:18:56.216Z,62.80
2022-08-08T18:22:00.143Z,63.40
2022-08-08T18:24:21.391Z,63.30
2022-08-08T18:32:32.157Z,63.60
2022-08-08T18:34:59.008Z,64.00
2022-08-08T18:37:34.255Z,63.70
2022-08-08T18:40:01.871Z,63.90
2022-08-08T18:42:28.849Z,64.20
2022-08-08T18:44:57.565Z,64.20
2022-08-08T18:47:28.418Z,64.40
2022-08-08T18:50:00.370Z,64.40
2022-08-08T18:52:36.744Z,64.50
2022-08-08T18:57:58.439Z,64.40
2022-08-08T19:00:26.203Z,64.60
2022-08-08T19:03:02.454Z,64.60
2022-08-08T19:08:30.568Z,64.90
2022-08-08T19:11:01.490Z,64.90
2022-08-08T19:22:03.720Z,65.50
2022-08-08T19:24:42.467Z,66.10
2022-08-08T19:27:18.703Z,65.90
2022-08-08T19:30:09.077Z,66.20
2022-08-08T19:32:45.060Z,65.90
2022-08-08T19:35:12.212Z,66.00
2022-08-08T19:37:43.816Z,66.00
2022-08-08T19:40:16.455Z,66.10
2022-08-08T19:42:44.204Z,66.50
2022-08-08T19:45:14.015Z,66.30
2022-08-08T19:47:41.264Z,67.10
2022-08-08T19:50:09.155Z,66.60
2022-08-08T19:52:41.914Z,66.50
2022-08-08T19:55:23.542Z,66.50
2022-08-08T19:57:50.558Z,66.80
2022-08-08T20:00:30.551Z,66.70
2022-08-08T20:03:14.575Z,66.60
2022-08-08T20:06:13.432Z,66.70
2022-08-08T20:08:33.316Z,66.50
2022-08-08T20:11:01.098Z,66.50
2022-08-08T20:14:31.275Z,66.40
2022-08-08T20:16:17.434Z,66.70
2022-08-08T20:18:53.148Z,66.50
2022-08-08T20:21:22.943Z,66.70
2022-08-08T20:23:52.651Z,66.70
2022-08-08T20:26:27.492Z,67.10
2022-08-08T20:28:57.413Z,66.80
2022-08-08T20:31:24.247Z,67.10
2022-08-08T20:37:04.121Z,67.00
2022-08-08T20:39:41.346Z,67.50
2022-08-08T20:42:29.189Z,67.60
2022-08-08T20:44:57.422Z,67.80
2022-08-08T20:47:25.556Z,67.60
2022-08-08T20:49:54.157Z,68.00
2022-08-08T20:52:24.298Z,67.50
2022-08-08T20:54:51.760Z,67.40
2022-08-08T20:57:20.978Z,67.70
2022-08-08T20:59:48.612Z,67.60
2022-08-08T21:02:25.951Z,67.90
2022-08-08T21:08:36.208Z,68.50
2022-08-08T21:10:36.909Z,69.00
2022-08-08T21:13:05.898Z,69.60
2022-08-08T21:16:06.145Z,69.90
2022-08-08T21:21:19.638Z,70.70
2022-08-08T21:24:09.287Z,70.70
2022-08-08T21:26:46.333Z,70.80
2022-08-08T21:29:20.094Z,70.90
2022-08-08T21:31:58.538Z,71.10
2022-08-08T21:34:30.045Z,70.90
2022-08-08T21:36:58.483Z,71.10
2022-08-08T21:39:41.371Z,71.40
2022-08-08T21:42:12.442Z,71.40
2022-08-08T21:44:59.100Z,71.40
2022-08-08T21:50:17.009Z,72.10
2022-08-08T21:54:32.788Z,72.00
2022-08-08T21:56:19.932Z,71.80
2022-08-08T21:58:18.289Z,72.20
2022-08-08T22:03:43.210Z,72.10
2022-08-08T22:06:31.100Z,72.40
2022-08-08T22:09:00.438Z,72.40
2022-08-08T22:14:21.170Z,72.50
2022-08-08T22:16:47.794Z,72.30
2022-08-08T22:19:20.099Z,72.40
2022-08-08T22:21:51.656Z,72.30
2022-08-08T22:24:28.007Z,72.30
2022-08-08T22:27:02.664Z,72.60
2022-08-08T22:29:59.152Z,72.90
2022-08-08T22:32:18.956Z,72.90
2022-08-08T22:34:51.227Z,72.80
2022-08-08T22:37:48.780Z,72.90
2022-08-08T22:40:12.042Z,72.80
2022-08-08T22:42:47.073Z,73.10
2022-08-08T22:45:14.647Z,73.30
2022-08-08T22:47:49.008Z,73.00
2022-08-08T22:50:25.767Z,73.20
2022-08-08T22:54:31.102Z,73.50
2022-08-08T22:55:58.416Z,73.20
2022-08-08T22:58:33.106Z,73.40
2022-08-08T23:02:01.638Z,73.60
2022-08-08T23:03:54.481Z,73.30
2022-08-08T23:06:22.966Z,73.70
2022-08-08T23:08:55.352Z,73.90
2022-08-08T23:11:58.064Z,73.90
2022-08-08T23:14:20.791Z,74.10
2022-08-08T23:16:58.000Z,73.70
2022-08-08T23:19:27.057Z,74.20
2022-08-08T23:21:54.264Z,73.90
2022-08-08T23:24:22.483Z,73.80
2022-08-08T23:26:55.590Z,74.00
2022-08-08T23:29:24.769Z,73.70
2022-08-08T23:31:51.945Z,73.80
2022-08-08T23:34:19.519Z,73.50
2022-08-08T23:36:47.678Z,73.40
2022-08-08T23:39:15.675Z,73.80
2022-08-08T23:41:46.848Z,73.70
2022-08-08T23:44:16.879Z,73.90
2022-08-08T23:49:01.958Z,73.70
2022-08-08T23:49:33.732Z,73.90
2022-08-08T23:52:06.424Z,74.00
2022-08-08T23:54:43.172Z,73.90
2022-08-08T23:57:26.345Z,73.70
